Time;durP1;ratioP1;P1;durP2;ratioP2;P2;SDS_P1;SDS_P2;PMS_P1;PMS_P2;Temp;Humidity;BMP_temperature;BMP_pressure;BME280_temperature;BME280_humidity;BME280_pressure;Samples;Min_cycle;Max_cycle;Signal;HPM_P1;HPM_P2
2021/12/23 13:20:03;;;;;;;22.47;14.33;;;0.70;96.40;;;;;;5109487;27;21066;-85
2021/12/23 13:22:29;;;;;;;27.33;15.50;;;0.60;96.50;;;;;;5088976;28;20167;-83
2021/12/23 13:24:55;;;;;;;26.37;17.13;;;0.70;96.80;;;;;;5090839;28;20707;-84
2021/12/23 13:27:24;;;;;;;25.10;16.77;;;0.80;96.60;;;;;;5101871;28;20259;-84
2021/12/23 13:29:56;;;;;;;23.33;15.40;;;0.90;96.30;;;;;;5112311;28;20235;-84
2021/12/23 13:32:22;;;;;;;32.03;15.60;;;1.00;96.00;;;;;;5084307;28;20540;-84
2021/12/23 13:34:48;;;;;;;19.47;14.07;;;1.00;96.10;;;;;;5089927;28;20178;-85
2021/12/23 13:37:13;;;;;;;21.17;14.83;;;1.10;96.20;;;;;;5088803;28;20176;-85
2021/12/23 13:39:41;;;;;;;22.33;14.93;;;1.10;95.90;;;;;;5088577;28;20203;-86
2021/12/23 13:42:10;;;;;;;22.17;15.47;;;1.20;95.90;;;;;;5088532;28;20168;-84
2021/12/23 13:44:42;;;;;;;22.80;14.23;;;1.30;95.80;;;;;;5087791;28;20238;-85
2021/12/23 13:47:14;;;;;;;20.00;13.80;;;1.30;95.70;;;;;;5088352;28;20158;-84
2021/12/23 13:49:50;;;;;;;20.43;14.00;;;1.30;95.60;;;;;;5069804;28;20208;-84
2021/12/23 13:52:22;;;;;;;22.23;15.40;;;1.20;95.40;;;;;;5087849;28;20168;-84
2021/12/23 13:54:52;;;;;;;28.20;15.00;;;1.20;95.60;;;;;;5087544;28;20173;-85
2021/12/23 13:57:20;;;;;;;19.93;13.30;;;1.20;95.50;;;;;;5087682;28;20172;-84
2021/12/23 13:59:47;;;;;;;28.40;14.77;;;1.30;95.70;;;;;;5087692;28;20309;-85
2021/12/23 14:02:19;;;;;;;18.93;13.23;;;1.30;95.60;;;;;;5088271;28;20174;-84
2021/12/23 14:04:51;;;;;;;20.17;13.63;;;1.20;95.60;;;;;;5069494;28;20184;-84
2021/12/23 14:07:26;;;;;;;23.50;13.97;;;1.20;95.40;;;;;;5087778;28;20635;-86
2021/12/23 14:10:07;;;;;;;22.73;14.70;;;1.10;95.70;;;;;;5090145;28;20169;-84
2021/12/23 14:12:44;;;;;;;23.13;14.73;;;1.00;96.20;;;;;;5088428;28;20169;-84
2021/12/23 14:15:32;;;;;;;21.27;13.83;;;1.00;95.70;;;;;;5087944;28;20173;-84
2021/12/23 14:18:03;;;;;;;20.30;13.83;;;1.10;95.90;;;;;;5068635;28;20730;-83
2021/12/23 14:23:21;;;;;;;24.47;14.27;;;1.20;95.80;;;;;;5090012;28;20217;-83
2021/12/23 14:26:11;;;;;;;27.80;14.17;;;1.20;95.70;;;;;;5098413;28;20177;-84
2021/12/23 14:28:48;;;;;;;17.60;14.47;;;1.10;95.70;;;;;;5098979;28;20259;-83
2021/12/23 14:31:17;;;;;;;19.10;14.47;;;1.00;95.70;;;;;;5082786;28;20171;-82
2021/12/23 14:33:46;;;;;;;23.77;14.87;;;1.00;95.80;;;;;;5079002;28;20186;-84
2021/12/23 14:36:17;;;;;;;28.43;13.87;;;1.00;96.00;;;;;;5092000;28;20187;-82
2021/12/23 14:38:46;;;;;;;21.93;13.60;;;1.00;96.00;;;;;;5094793;28;20213;-82
2021/12/23 14:41:15;;;;;;;18.77;14.10;;;0.90;96.10;;;;;;5095170;28;20179;-82
2021/12/23 14:43:58;;;;;;;24.10;14.53;;;1.00;96.00;;;;;;5087254;28;20179;-84
2021/12/23 14:46:41;;;;;;;25.92;17.42;;;0.90;96.10;;;;;;5080253;28;20410;-83
2021/12/23 14:51:42;;;;;;;28.27;14.57;;;1.00;96.10;;;;;;5076084;28;20163;-84
2021/12/23 14:54:14;;;;;;;20.43;14.57;;;1.10;96.10;;;;;;5074552;28;20537;-85
2021/12/23 14:56:42;;;;;;;22.50;14.60;;;1.00;96.00;;;;;;5074606;28;20197;-84
2021/12/23 14:59:11;;;;;;;22.73;14.13;;;1.00;96.10;;;;;;5073993;28;20232;-85
2021/12/23 15:01:40;;;;;;;27.60;15.10;;;1.00;96.00;;;;;;5055306;28;20180;-83
2021/12/23 15:04:11;;;;;;;21.63;14.37;;;0.90;95.90;;;;;;5073497;28;20176;-82
2021/12/23 15:06:59;;;;;;;20.70;14.27;;;0.90;96.00;;;;;;5073163;28;20737;-84
2021/12/23 15:09:25;;;;;;;21.60;14.20;;;0.80;96.10;;;;;;5073880;28;20225;-84
2021/12/23 15:11:51;;;;;;;21.37;15.63;;;0.70;96.10;;;;;;5073447;28;20219;-84
2021/12/23 15:14:18;;;;;;;27.47;14.70;;;0.60;96.20;;;;;;5055275;28;20188;-84
2021/12/23 15:16:44;;;;;;;29.43;13.97;;;0.50;96.20;;;;;;5074062;28;20176;-83
2021/12/23 15:21:47;;;;;;;20.07;14.37;;;0.40;96.40;;;;;;5097547;28;20157;-86
2021/12/23 15:24:29;;;;;;;27.80;14.53;;;0.30;96.50;;;;;;5081797;28;20185;-87
2021/12/23 15:27:00;;;;;;;26.20;16.47;;;0.30;96.70;;;;;;5072764;28;20217;-85
2021/12/23 15:29:29;;;;;;;20.90;13.93;;;0.20;96.90;;;;;;5058113;28;20192;-85
2021/12/23 15:32:00;;;;;;;22.10;13.83;;;0.30;97.00;;;;;;5058331;28;20267;-86
2021/12/23 15:34:28;;;;;;;24.37;15.63;;;0.30;96.60;;;;;;5076067;28;20176;-82
2021/12/23 15:36:55;;;;;;;24.97;14.23;;;0.30;96.80;;;;;;5073931;28;20172;-83
2021/12/23 15:39:28;;;;;;;23.17;15.50;;;0.20;96.80;;;;;;5072820;28;20204;-81
2021/12/23 15:41:54;;;;;;;24.97;15.20;;;0.20;96.70;;;;;;5071647;28;20251;-81
2021/12/23 15:44:22;;;;;;;21.43;14.17;;;0.30;96.60;;;;;;5072543;28;20308;-83
2021/12/23 15:46:48;;;;;;;21.03;14.40;;;0.40;96.80;;;;;;5053933;28;20184;-84
2021/12/23 15:49:13;;;;;;;26.17;15.03;;;0.30;96.60;;;;;;5072375;28;20172;-84
2021/12/23 15:51:39;;;;;;;22.77;14.53;;;0.30;96.50;;;;;;5072191;28;20176;-83
2021/12/23 15:54:06;;;;;;;29.70;14.60;;;0.30;96.70;;;;;;5053923;28;20655;-82
2021/12/23 15:56:32;;;;;;;18.57;14.10;;;0.30;96.50;;;;;;5054180;28;20180;-83
2021/12/23 15:58:58;;;;;;;21.50;14.40;;;0.40;96.70;;;;;;5054453;28;20218;-82
2021/12/23 16:01:24;;;;;;;23.53;14.97;;;0.40;96.50;;;;;;5054721;28;20197;-83
2021/12/23 16:03:52;;;;;;;29.93;16.03;;;0.40;96.60;;;;;;5071973;28;20734;-84
2021/12/23 16:09:03;;;;;;;25.27;13.77;;;0.30;96.80;;;;;;5072079;28;20190;-83
2021/12/23 16:11:29;;;;;;;23.50;14.50;;;0.30;96.80;;;;;;5071986;28;20286;-83
2021/12/23 16:13:55;;;;;;;21.70;14.87;;;0.30;96.70;;;;;;5071627;28;20173;-81
2021/12/23 16:16:21;;;;;;;23.40;13.87;;;0.30;96.80;;;;;;5071606;28;20740;-83
2021/12/23 16:18:48;;;;;;;20.97;13.33;;;0.30;96.80;;;;;;5054149;28;20271;-84
2021/12/23 16:21:13;;;;;;;22.13;14.27;;;0.20;96.90;;;;;;5054024;28;20234;-86
2021/12/23 17:23:57;;;;;;;25.97;15.90;;;-0.90;98.40;;;;;;5006424;27;2487616;-84
2021/12/23 17:26:26;;;;;;;27.40;15.90;;;-0.90;98.70;;;;;;5069938;28;20281;-84
2021/12/23 17:28:52;;;;;;;25.00;15.47;;;-0.80;98.70;;;;;;5052271;28;20547;-84
2021/12/23 17:31:18;;;;;;;29.47;16.47;;;-0.70;98.50;;;;;;5070233;28;20191;-83
